createdAt,value
2023-10-05T00:02:12.692Z,78.87
2023-10-05T00:04:44.335Z,77.95
2023-10-05T00:07:13.088Z,77.95
2023-10-05T00:09:44.665Z,77.76
2023-10-05T00:12:19.477Z,78.25
2023-10-05T00:14:49.891Z,77.96
2023-10-05T00:17:26.893Z,78.99
2023-10-05T00:19:53.724Z,77.88
2023-10-05T00:22:21.434Z,78.82
2023-10-05T00:24:49.879Z,79.25
2023-10-05T00:27:16.775Z,79.03
2023-10-05T00:29:50.135Z,79.02
2023-10-05T00:32:17.046Z,80.05
2023-10-05T00:34:45.876Z,79.23
2023-10-05T00:37:13.171Z,79.00
2023-10-05T00:39:41.044Z,79.07
2023-10-05T00:42:07.686Z,79.37
2023-10-05T00:44:36.277Z,79.27
2023-10-05T00:47:07.561Z,80.75
2023-10-05T00:49:46.788Z,80.28
2023-10-05T00:52:16.574Z,79.99
2023-10-05T00:54:52.396Z,80.67
2023-10-05T00:57:24.432Z,82.40
2023-10-05T00:59:57.648Z,82.01
2023-10-05T01:02:24.936Z,81.37
2023-10-05T01:04:57.956Z,81.45
2023-10-05T01:07:25.951Z,83.16
2023-10-05T01:10:00.749Z,82.63
2023-10-05T01:12:30.978Z,83.57
2023-10-05T01:15:00.510Z,82.61
2023-10-05T01:17:29.053Z,83.30
2023-10-05T01:20:00.238Z,84.12
2023-10-05T01:22:34.428Z,84.85
2023-10-05T01:25:06.072Z,85.57
2023-10-05T01:27:33.513Z,83.76
2023-10-05T01:30:00.565Z,85.68
2023-10-05T01:32:27.790Z,83.83
2023-10-05T01:34:54.954Z,81.61
2023-10-05T01:37:26.917Z,80.97
2023-10-05T01:39:53.961Z,82.01
2023-10-05T01:42:20.926Z,83.04
2023-10-05T01:44:50.685Z,82.96
2023-10-05T01:47:18.154Z,83.37
2023-10-05T01:49:46.229Z,85.88
2023-10-05T01:52:19.295Z,86.67
2023-10-05T01:54:46.099Z,86.13
2023-10-05T01:57:17.189Z,84.53
2023-10-05T01:59:44.870Z,84.44
2023-10-05T02:02:12.004Z,85.44
2023-10-05T02:04:44.459Z,86.24
2023-10-05T02:07:13.033Z,85.60
2023-10-05T02:09:39.870Z,85.04
2023-10-05T02:12:08.256Z,86.03
2023-10-05T02:14:39.202Z,84.03
2023-10-05T02:17:07.440Z,83.81
2023-10-05T02:19:38.179Z,85.50
2023-10-05T02:22:12.051Z,85.94
2023-10-05T02:24:42.187Z,85.28
2023-10-05T02:27:15.821Z,84.46
2023-10-05T02:29:46.832Z,84.23
2023-10-05T02:32:16.888Z,83.77
2023-10-05T02:34:46.701Z,82.76
2023-10-05T02:37:14.047Z,84.99
2023-10-05T02:39:41.936Z,84.37
2023-10-05T02:42:16.553Z,84.12
2023-10-05T02:44:44.359Z,84.40
2023-10-05T02:47:15.106Z,85.96
2023-10-05T02:49:45.420Z,84.85
2023-10-05T02:52:14.626Z,85.11
2023-10-05T02:54:41.644Z,85.59
2023-10-05T02:57:15.869Z,85.74
2023-10-05T02:59:42.452Z,86.26
2023-10-05T03:02:09.449Z,86.21
2023-10-05T03:04:46.578Z,88.21
2023-10-05T03:07:17.777Z,87.81
2023-10-05T03:09:45.347Z,87.52
2023-10-05T03:12:12.494Z,85.49
2023-10-05T03:14:46.049Z,85.67
2023-10-05T03:17:20.297Z,84.48
2023-10-05T03:19:47.163Z,84.98
2023-10-05T03:22:14.080Z,85.89
2023-10-05T03:24:46.034Z,85.65
2023-10-05T03:27:13.238Z,85.58
2023-10-05T03:29:40.034Z,86.61
2023-10-05T03:32:09.370Z,87.10
2023-10-05T03:34:36.945Z,85.21
2023-10-05T03:37:14.250Z,84.71
2023-10-05T03:39:59.872Z,83.65
2023-10-05T03:42:26.708Z,83.74
2023-10-05T03:45:10.190Z,85.06
2023-10-05T03:47:39.299Z,84.41
2023-10-05T03:50:07.550Z,84.46
2023-10-05T03:52:34.385Z,83.20
2023-10-05T03:55:10.946Z,82.63
2023-10-05T03:57:44.243Z,83.50
2023-10-05T04:00:23.283Z,82.91
2023-10-05T04:02:58.226Z,82.18
2023-10-05T04:05:26.128Z,82.10
2023-10-05T04:07:54.144Z,81.89
2023-10-05T04:10:46.852Z,81.31
2023-10-05T04:13:16.197Z,80.91
2023-10-05T04:15:42.986Z,81.83
2023-10-05T04:18:16.403Z,81.88
2023-10-05T04:20:44.720Z,82.78
2023-10-05T04:23:16.511Z,83.92
2023-10-05T04:25:45.778Z,83.63
2023-10-05T04:28:13.052Z,84.42
2023-10-05T04:30:39.875Z,83.11
2023-10-05T04:33:06.862Z,84.32
2023-10-05T04:35:43.374Z,84.44
2023-10-05T04:38:12.171Z,84.42
2023-10-05T04:40:40.127Z,84.90
2023-10-05T04:43:12.491Z,84.27
2023-10-05T04:45:44.029Z,84.94
2023-10-05T04:48:13.798Z,85.55
2023-10-05T04:50:43.854Z,85.32
2023-10-05T04:53:11.261Z,86.98
2023-10-05T04:55:44.398Z,87.67
2023-10-05T04:58:24.961Z,86.93
2023-10-05T05:01:04.307Z,87.52
2023-10-05T05:03:49.418Z,87.98
2023-10-05T05:06:17.142Z,89.03
2023-10-05T05:08:44.842Z,89.51
2023-10-05T05:11:19.910Z,90.40
2023-10-05T05:13:48.002Z,91.29
2023-10-05T05:16:16.462Z,91.98
2023-10-05T05:18:43.910Z,92.11
2023-10-05T05:21:13.914Z,90.53
2023-10-05T05:23:48.595Z,89.45
2023-10-05T05:26:15.706Z,89.63
2023-10-05T05:28:44.919Z,89.20
2023-10-05T05:31:18.347Z,89.08
2023-10-05T05:33:45.656Z,90.14
2023-10-05T05:36:13.600Z,90.51
2023-10-05T05:38:49.297Z,90.44
2023-10-05T05:41:28.388Z,91.51
2023-10-05T05:43:55.160Z,89.98
2023-10-05T05:46:22.038Z,88.32
2023-10-05T05:48:53.866Z,87.05
2023-10-05T05:51:24.732Z,87.68
2023-10-05T05:53:53.251Z,89.53
2023-10-05T05:56:29.982Z,87.97
2023-10-05T05:58:57.110Z,88.24
2023-10-05T06:01:23.802Z,87.80
2023-10-05T06:03:51.026Z,88.91
2023-10-05T06:06:17.972Z,88.51
2023-10-05T06:08:45.513Z,87.68
2023-10-05T06:11:13.841Z,88.14
2023-10-05T06:13:41.798Z,88.09
2023-10-05T06:16:11.784Z,88.63
2023-10-05T06:18:38.853Z,85.70
2023-10-05T06:21:08.467Z,86.73
2023-10-05T06:23:35.215Z,88.01
2023-10-05T06:26:02.198Z,87.21
2023-10-05T06:28:29.122Z,86.55
2023-10-05T06:30:58.103Z,86.33
2023-10-05T06:33:26.935Z,87.05
2023-10-05T06:35:53.818Z,85.53
2023-10-05T06:38:20.877Z,85.23
2023-10-05T06:40:47.782Z,85.02
2023-10-05T06:43:16.411Z,85.66
2023-10-05T06:45:46.494Z,85.35
2023-10-05T06:48:15.902Z,86.28
2023-10-05T06:50:44.494Z,85.55
2023-10-05T06:53:14.141Z,84.75
2023-10-05T06:55:41.010Z,84.17
2023-10-05T06:58:08.730Z,81.48
2023-10-05T07:00:35.534Z,80.25
2023-10-05T07:03:08.253Z,80.19
2023-10-05T07:05:35.165Z,80.44
2023-10-05T07:08:02.061Z,80.64
2023-10-05T07:10:29.274Z,79.80
2023-10-05T07:12:56.062Z,79.36
2023-10-05T07:15:22.854Z,77.67
2023-10-05T07:17:52.450Z,77.59
2023-10-05T07:20:20.055Z,76.45
2023-10-05T07:22:47.567Z,76.03
2023-10-05T07:25:15.771Z,75.33
2023-10-05T07:27:46.569Z,72.47
2023-10-05T07:30:13.963Z,72.03
2023-10-05T07:32:41.759Z,71.65
2023-10-05T07:35:09.207Z,71.53
2023-10-05T07:37:37.253Z,71.26
2023-10-05T07:40:15.018Z,70.64
2023-10-05T07:42:42.308Z,72.19
2023-10-05T07:45:09.450Z,71.21
2023-10-05T07:47:45.893Z,70.75
2023-10-05T07:50:12.904Z,69.28
2023-10-05T07:52:41.195Z,67.84
2023-10-05T07:55:09.398Z,67.29
2023-10-05T07:57:36.154Z,67.22
2023-10-05T08:00:04.669Z,68.46
2023-10-05T08:02:31.701Z,69.42
2023-10-05T08:04:58.561Z,67.00
2023-10-05T08:07:25.338Z,66.95
2023-10-05T08:09:52.093Z,68.81
2023-10-05T08:12:19.356Z,67.56
2023-10-05T08:14:46.201Z,66.72
2023-10-05T08:17:13.689Z,66.56
2023-10-05T08:19:40.545Z,66.21
2023-10-05T08:22:07.571Z,66.94
2023-10-05T08:24:35.440Z,65.17
2023-10-05T08:27:03.363Z,65.52
2023-10-05T08:29:30.994Z,65.58
2023-10-05T08:31:58.388Z,66.80
2023-10-05T08:34:26.448Z,64.19
2023-10-05T08:36:56.420Z,64.28
2023-10-05T08:39:26.884Z,64.24
2023-10-05T08:42:04.117Z,60.83
2023-10-05T08:44:32.156Z,62.31
2023-10-05T08:46:59.464Z,61.03
2023-10-05T08:49:28.741Z,60.23
2023-10-05T08:52:04.359Z,60.43
2023-10-05T08:54:34.540Z,61.82
2023-10-05T08:57:10.393Z,61.75
2023-10-05T08:59:47.138Z,61.09
2023-10-05T09:02:20.059Z,60.66
2023-10-05T09:05:01.976Z,59.02
2023-10-05T09:07:31.160Z,58.07
2023-10-05T09:09:58.309Z,59.13
2023-10-05T09:12:44.134Z,60.43
2023-10-05T09:15:22.757Z,60.14
2023-10-05T09:18:07.512Z,59.18
2023-10-05T09:20:37.651Z,57.72
2023-10-05T09:23:09.409Z,58.19
2023-10-05T09:25:41.908Z,57.43
2023-10-05T09:28:15.765Z,56.29
2023-10-05T09:30:57.053Z,57.03
2023-10-05T09:33:26.918Z,57.34
2023-10-05T09:36:06.699Z,56.20
2023-10-05T09:38:42.385Z,56.18
2023-10-05T09:41:09.520Z,56.81
2023-10-05T09:43:40.091Z,57.00
2023-10-05T09:46:11.590Z,54.66
2023-10-05T09:48:39.900Z,56.63
2023-10-05T09:51:15.315Z,55.23
2023-10-05T09:53:45.205Z,55.80
2023-10-05T09:56:19.192Z,55.49
2023-10-05T09:58:51.700Z,55.69
2023-10-05T10:01:24.216Z,55.97
2023-10-05T10:03:53.349Z,54.18
2023-10-05T10:06:21.226Z,53.04
2023-10-05T10:08:52.508Z,51.32
2023-10-05T10:11:19.870Z,51.91
2023-10-05T10:14:02.428Z,49.26
2023-10-05T10:16:30.147Z,48.05
2023-10-05T10:19:07.662Z,48.91
2023-10-05T10:21:37.446Z,49.50
2023-10-05T10:24:08.265Z,48.79
2023-10-05T10:26:45.613Z,47.31
2023-10-05T10:29:17.376Z,43.21
2023-10-05T10:31:45.427Z,44.95
2023-10-05T10:34:30.555Z,42.50
2023-10-05T10:36:58.289Z,43.89
2023-10-05T10:39:32.971Z,42.84
2023-10-05T10:42:06.116Z,40.80
2023-10-05T10:44:56.360Z,36.90
2023-10-05T10:47:28.456Z,37.92
2023-10-05T10:50:24.410Z,37.86
2023-10-05T10:52:51.739Z,37.39
2023-10-05T10:55:21.286Z,40.02
2023-10-05T10:57:48.638Z,38.60
2023-10-05T11:00:36.647Z,38.01
2023-10-05T11:03:13.235Z,37.81
2023-10-05T11:05:45.635Z,40.18
2023-10-05T11:08:21.729Z,41.79
2023-10-05T11:11:11.044Z,42.28
2023-10-05T11:14:01.531Z,41.84
2023-10-05T11:16:36.947Z,38.06
2023-10-05T11:21:48.133Z,37.49
2023-10-05T11:26:55.982Z,35.79
2023-10-05T11:29:29.567Z,35.60
2023-10-05T11:32:07.032Z,35.58
2023-10-05T11:35:18.046Z,35.81
2023-10-05T11:37:46.097Z,36.02
2023-10-05T11:40:25.158Z,35.56
2023-10-05T11:42:52.271Z,36.35
2023-10-05T11:45:19.796Z,36.40
2023-10-05T11:47:54.528Z,34.86
2023-10-05T11:50:34.131Z,34.26
2023-10-05T11:53:07.793Z,35.50
2023-10-05T11:55:36.945Z,37.23
2023-10-05T11:58:04.125Z,38.05
2023-10-05T12:00:32.814Z,37.41
2023-10-05T12:02:59.778Z,38.82
2023-10-05T12:05:30.111Z,38.03
2023-10-05T12:08:00.871Z,36.21
2023-10-05T12:10:27.713Z,33.71
2023-10-05T12:12:54.642Z,35.03
2023-10-05T12:15:24.048Z,35.65
2023-10-05T12:17:51.088Z,36.57
2023-10-05T12:20:19.499Z,35.33
2023-10-05T12:22:46.630Z,34.68
2023-10-05T12:25:16.476Z,34.58
2023-10-05T12:27:43.502Z,32.17
2023-10-05T12:30:13.133Z,32.00
2023-10-05T12:32:40.418Z,31.80
2023-10-05T12:35:18.180Z,33.68
2023-10-05T12:37:46.056Z,33.64
2023-10-05T12:40:27.646Z,33.32
2023-10-05T12:45:25.429Z,33.56
2023-10-05T12:47:58.738Z,33.81
2023-10-05T12:50:31.682Z,32.74
2023-10-05T12:53:01.683Z,33.74
2023-10-05T12:55:30.525Z,34.58
2023-10-05T12:57:58.308Z,33.98
2023-10-05T13:00:45.820Z,34.54
2023-10-05T13:03:13.935Z,34.84
2023-10-05T13:05:44.962Z,35.83
2023-10-05T13:08:13.085Z,35.95
2023-10-05T13:10:40.238Z,35.82
2023-10-05T13:13:19.712Z,35.92
2023-10-05T13:15:46.827Z,36.90
2023-10-05T13:18:19.842Z,36.15
2023-10-05T13:20:55.343Z,36.77
2023-10-05T13:23:23.438Z,35.82
2023-10-05T13:25:51.803Z,33.58
2023-10-05T13:28:27.979Z,34.54
2023-10-05T13:30:58.556Z,34.75
2023-10-05T13:33:33.340Z,34.66
2023-10-05T13:36:00.234Z,34.80
2023-10-05T13:38:30.275Z,35.13
2023-10-05T13:41:15.570Z,34.38
2023-10-05T13:43:42.763Z,35.01
2023-10-05T13:46:20.396Z,35.47
2023-10-05T13:48:57.393Z,35.48
2023-10-05T13:51:24.802Z,35.18
2023-10-05T13:53:55.929Z,36.70
2023-10-05T13:56:28.694Z,35.89
2023-10-05T13:59:03.810Z,35.48
2023-10-05T14:01:39.848Z,36.06
2023-10-05T14:04:09.073Z,36.49
2023-10-05T14:06:37.754Z,37.93
2023-10-05T14:09:08.320Z,38.66
2023-10-05T14:11:39.520Z,37.55
2023-10-05T14:14:07.436Z,37.25
2023-10-05T14:16:50.608Z,38.09
2023-10-05T14:19:23.976Z,38.35
2023-10-05T14:21:54.059Z,38.65
2023-10-05T14:24:22.315Z,38.77
2023-10-05T14:26:50.265Z,38.04
2023-10-05T14:29:18.821Z,38.68
2023-10-05T14:31:49.309Z,39.30
2023-10-05T14:34:18.757Z,39.85
2023-10-05T14:36:46.343Z,39.72
2023-10-05T14:39:22.710Z,40.35
2023-10-05T14:41:52.886Z,39.86
2023-10-05T14:44:19.580Z,39.81
2023-10-05T14:46:51.022Z,39.92
2023-10-05T14:49:23.069Z,40.19
2023-10-05T14:51:51.110Z,40.74
2023-10-05T14:54:18.856Z,41.10
2023-10-05T14:56:45.716Z,41.49
2023-10-05T14:59:13.748Z,42.02
2023-10-05T15:01:42.099Z,42.56
2023-10-05T15:04:09.461Z,42.84
2023-10-05T15:06:36.390Z,43.75
2023-10-05T15:09:03.911Z,43.09
2023-10-05T15:11:31.129Z,43.39
2023-10-05T15:13:59.490Z,43.68
2023-10-05T15:16:27.848Z,43.67
2023-10-05T15:18:55.423Z,43.88
2023-10-05T15:21:22.092Z,44.06
2023-10-05T15:23:49.015Z,44.75
2023-10-05T15:26:18.221Z,44.59
2023-10-05T15:28:45.320Z,45.08
2023-10-05T15:31:12.408Z,46.41
2023-10-05T15:33:39.392Z,46.45
2023-10-05T15:36:06.522Z,45.29
2023-10-05T15:38:35.313Z,45.89
2023-10-05T15:41:05.372Z,46.71
2023-10-05T15:43:32.754Z,46.80
2023-10-05T15:46:01.536Z,47.00
2023-10-05T15:48:28.896Z,47.96
2023-10-05T15:50:56.801Z,47.42
2023-10-05T15:53:23.503Z,47.53
2023-10-05T15:55:50.374Z,47.21
2023-10-05T15:58:17.487Z,48.30
2023-10-05T16:00:44.394Z,49.56
2023-10-05T16:03:12.366Z,50.10
2023-10-05T16:05:40.419Z,49.69
2023-10-05T16:08:08.160Z,49.84
2023-10-05T16:10:36.178Z,49.92
2023-10-05T16:13:08.920Z,50.17
2023-10-05T16:15:36.302Z,50.96
2023-10-05T16:18:04.099Z,52.56
2023-10-05T16:20:32.453Z,54.46
2023-10-05T16:23:07.052Z,55.64
2023-10-05T16:25:38.025Z,55.80
2023-10-05T16:28:07.329Z,55.40
2023-10-05T16:30:34.268Z,55.84
2023-10-05T16:33:02.608Z,55.09
2023-10-05T16:35:29.492Z,55.38
2023-10-05T16:37:57.502Z,55.67
2023-10-05T16:40:29.970Z,56.04
2023-10-05T16:42:58.843Z,55.90
2023-10-05T16:45:25.888Z,58.03
2023-10-05T16:47:53.565Z,58.46
2023-10-05T16:50:21.547Z,58.13
2023-10-05T16:52:49.359Z,59.84
2023-10-05T16:55:17.025Z,61.67
2023-10-05T16:57:46.806Z,62.80
2023-10-05T17:00:17.951Z,62.06
2023-10-05T17:02:45.673Z,62.52
2023-10-05T17:05:17.136Z,61.87
2023-10-05T17:07:48.157Z,61.20
2023-10-05T17:10:15.338Z,60.84
2023-10-05T17:12:42.435Z,62.34
2023-10-05T17:15:09.448Z,62.98
2023-10-05T17:17:36.471Z,63.34
2023-10-05T17:20:03.800Z,63.74
2023-10-05T17:22:30.539Z,66.41
2023-10-05T17:24:57.706Z,66.89
2023-10-05T17:27:25.190Z,66.37
2023-10-05T17:29:52.471Z,66.66
2023-10-05T17:32:19.594Z,66.40
2023-10-05T17:34:53.707Z,65.84
2023-10-05T17:37:20.989Z,66.71
2023-10-05T17:39:47.920Z,68.38
2023-10-05T17:42:14.625Z,68.40
2023-10-05T17:44:41.672Z,69.07
2023-10-05T17:47:09.377Z,69.26
2023-10-05T17:49:40.321Z,69.02
2023-10-05T17:52:08.731Z,68.57
2023-10-05T17:54:35.629Z,67.48
2023-10-05T17:57:03.564Z,68.70
2023-10-05T17:59:30.383Z,68.29
2023-10-05T18:01:57.373Z,69.28
2023-10-05T18:04:25.897Z,69.78
2023-10-05T18:06:52.724Z,70.49
2023-10-05T18:09:19.555Z,69.67
2023-10-05T18:11:47.150Z,68.21
2023-10-05T18:14:14.051Z,69.28
2023-10-05T18:16:42.953Z,71.14
2023-10-05T18:19:12.460Z,73.06
2023-10-05T18:21:39.347Z,73.24
2023-10-05T18:24:06.725Z,73.34
2023-10-05T18:26:33.596Z,73.39
2023-10-05T18:29:03.316Z,70.97
2023-10-05T18:31:31.583Z,70.78
2023-10-05T18:33:58.639Z,70.33
2023-10-05T18:36:25.809Z,69.97
2023-10-05T18:38:52.796Z,70.50
2023-10-05T18:41:21.204Z,71.75
2023-10-05T18:43:51.558Z,70.31
2023-10-05T18:46:19.384Z,71.17
2023-10-05T18:48:46.168Z,70.87
2023-10-05T18:51:12.853Z,71.40
2023-10-05T18:53:40.833Z,72.22
2023-10-05T18:56:08.333Z,72.81
2023-10-05T18:58:36.640Z,73.23
2023-10-05T19:01:03.710Z,73.50
2023-10-05T19:03:30.672Z,72.80
2023-10-05T19:05:57.525Z,72.52
2023-10-05T19:08:24.336Z,72.50
2023-10-05T19:10:51.172Z,73.01
2023-10-05T19:13:17.837Z,72.73
2023-10-05T19:15:44.567Z,72.68
2023-10-05T19:18:11.357Z,72.92
2023-10-05T19:20:38.118Z,72.37
2023-10-05T19:23:07.607Z,73.36
2023-10-05T19:25:34.321Z,73.07
2023-10-05T19:28:01.208Z,72.36
2023-10-05T19:30:27.938Z,72.67
2023-10-05T19:32:54.784Z,74.92
2023-10-05T19:35:22.390Z,74.79
2023-10-05T19:37:49.168Z,74.76
2023-10-05T19:40:15.996Z,75.24
2023-10-05T19:42:42.966Z,77.34
2023-10-05T19:45:11.865Z,76.23
2023-10-05T19:47:38.664Z,75.13
2023-10-05T19:50:07.122Z,75.21
2023-10-05T19:52:34.027Z,74.78
2023-10-05T19:55:00.915Z,75.61
2023-10-05T19:57:27.573Z,74.82
2023-10-05T19:59:55.658Z,75.21
2023-10-05T20:02:22.456Z,74.08
2023-10-05T20:04:51.946Z,75.54
2023-10-05T20:07:19.322Z,75.62
2023-10-05T20:09:46.032Z,75.81
2023-10-05T20:12:12.960Z,74.56
2023-10-05T20:14:39.704Z,75.70
2023-10-05T20:17:06.987Z,75.30
2023-10-05T20:19:34.332Z,75.79
2023-10-05T20:22:01.753Z,76.77
2023-10-05T20:24:28.618Z,77.63
2023-10-05T20:26:55.493Z,77.39
2023-10-05T20:29:22.699Z,77.61
2023-10-05T20:31:49.450Z,77.75
2023-10-05T20:34:22.942Z,80.00
2023-10-05T20:36:53.718Z,80.90
2023-10-05T20:39:23.551Z,79.56
2023-10-05T20:41:55.318Z,80.56
2023-10-05T20:44:22.301Z,81.15
2023-10-05T20:46:49.568Z,81.61
2023-10-05T20:49:16.280Z,81.04
2023-10-05T20:51:43.016Z,79.98
2023-10-05T20:54:10.630Z,79.23
2023-10-05T20:56:37.410Z,78.37
2023-10-05T20:59:04.938Z,78.70
2023-10-05T21:01:31.639Z,77.04
2023-10-05T21:03:58.409Z,76.53
2023-10-05T21:06:26.131Z,75.96
2023-10-05T21:08:53.283Z,75.79
2023-10-05T21:11:20.046Z,76.56
2023-10-05T21:13:47.005Z,76.70
2023-10-05T21:16:13.778Z,77.61
2023-10-05T21:18:40.638Z,78.63
2023-10-05T21:21:07.283Z,78.37
2023-10-05T21:23:33.947Z,79.30
2023-10-05T21:26:00.666Z,80.50
2023-10-05T21:28:27.365Z,80.76
2023-10-05T21:30:55.303Z,84.61
2023-10-05T21:33:22.145Z,84.85
2023-10-05T21:35:48.862Z,83.08
2023-10-05T21:38:15.589Z,82.24
2023-10-05T21:40:42.388Z,83.34
2023-10-05T21:43:09.095Z,81.32
2023-10-05T21:45:35.919Z,80.43
2023-10-05T21:48:02.755Z,81.58
2023-10-05T21:50:29.650Z,81.73
2023-10-05T21:52:56.543Z,80.62
2023-10-05T21:55:23.390Z,81.25
2023-10-05T21:57:50.196Z,80.97
2023-10-05T22:00:49.055Z,81.97
2023-10-05T22:03:15.727Z,82.75
2023-10-05T22:05:42.681Z,82.94
2023-10-05T22:08:09.747Z,83.75
2023-10-05T22:10:37.325Z,83.92
2023-10-05T22:13:04.739Z,83.51
2023-10-05T22:15:32.400Z,84.25
2023-10-05T22:18:00.624Z,84.78
2023-10-05T22:20:27.976Z,82.75
2023-10-05T22:22:57.516Z,81.00
2023-10-05T22:25:24.381Z,80.77
2023-10-05T22:27:51.555Z,80.68
2023-10-05T22:30:18.822Z,80.50
2023-10-05T22:32:46.341Z,79.87
2023-10-05T22:35:13.208Z,80.97
2023-10-05T22:37:40.034Z,80.23
2023-10-05T22:40:07.322Z,80.34
2023-10-05T22:42:35.593Z,80.51
2023-10-05T22:45:02.252Z,81.85
2023-10-05T22:47:29.107Z,81.89
2023-10-05T22:49:57.516Z,81.95
2023-10-05T22:52:25.879Z,81.50
2023-10-05T22:54:56.442Z,83.16
2023-10-05T22:57:24.294Z,82.83
2023-10-05T22:59:51.717Z,83.66
2023-10-05T23:02:18.654Z,82.25
2023-10-05T23:04:45.403Z,81.05
2023-10-05T23:07:12.577Z,81.50
2023-10-05T23:09:40.196Z,83.05
2023-10-05T23:12:12.245Z,83.88
2023-10-05T23:14:39.682Z,83.96
2023-10-05T23:17:09.304Z,84.78
2023-10-05T23:19:36.851Z,83.82
2023-10-05T23:22:04.307Z,83.78
2023-10-05T23:24:32.033Z,83.47
2023-10-05T23:27:00.558Z,85.11
2023-10-05T23:29:30.087Z,84.88
2023-10-05T23:31:58.237Z,84.71
2023-10-05T23:34:36.850Z,84.02
2023-10-05T23:37:09.569Z,83.09
2023-10-05T23:39:36.613Z,82.89
2023-10-05T23:42:12.391Z,82.83
2023-10-05T23:44:42.876Z,82.68
2023-10-05T23:47:24.110Z,83.65
2023-10-05T23:49:55.009Z,85.68
2023-10-05T23:52:22.521Z,83.80
2023-10-05T23:54:49.284Z,83.83
2023-10-05T23:57:21.299Z,84.84
2023-10-05T23:59:48.743Z,83.58
